sensor_id;sensor_type;location;lat;lon;timestamp;P1;durP1;ratioP1;P2;durP2;ratioP2
17725;SDS011;8983;53.156;17.960;2023-02-19T00:01:43;4.53;;;3.10;;
17725;SDS011;8983;53.156;17.960;2023-02-19T00:04:13;7.67;;;3.40;;
17725;SDS011;8983;53.156;17.960;2023-02-19T00:06:43;5.73;;;3.13;;
17725;SDS011;8983;53.156;17.960;2023-02-19T00:09:12;5.10;;;3.20;;
17725;SDS011;8983;53.156;17.960;2023-02-19T00:11:43;8.10;;;3.90;;
17725;SDS011;8983;53.156;17.960;2023-02-19T00:14:13;4.60;;;3.10;;
17725;SDS011;8983;53.156;17.960;2023-02-19T00:16:43;6.80;;;3.50;;
17725;SDS011;8983;53.156;17.960;2023-02-19T00:19:12;9.60;;;3.63;;
17725;SDS011;8983;53.156;17.960;2023-02-19T00:21:41;5.90;;;3.50;;
17725;SDS011;8983;53.156;17.960;2023-02-19T00:24:10;6.37;;;3.30;;
17725;SDS011;8983;53.156;17.960;2023-02-19T00:26:40;7.73;;;3.60;;
17725;SDS011;8983;53.156;17.960;2023-02-19T00:29:12;7.20;;;3.80;;
17725;SDS011;8983;53.156;17.960;2023-02-19T00:31:42;8.77;;;3.80;;
17725;SDS011;8983;53.156;17.960;2023-02-19T00:34:11;5.73;;;3.53;;
17725;SDS011;8983;53.156;17.960;2023-02-19T00:36:40;9.60;;;3.57;;
17725;SDS011;8983;53.156;17.960;2023-02-19T00:39:10;8.23;;;3.90;;
17725;SDS011;8983;53.156;17.960;2023-02-19T00:41:44;5.73;;;3.53;;
17725;SDS011;8983;53.156;17.960;2023-02-19T00:44:14;6.70;;;3.43;;
17725;SDS011;8983;53.156;17.960;2023-02-19T00:46:42;10.00;;;3.10;;
17725;SDS011;8983;53.156;17.960;2023-02-19T00:49:14;4.13;;;3.37;;
17725;SDS011;8983;53.156;17.960;2023-02-19T00:51:44;9.10;;;3.50;;
17725;SDS011;8983;53.156;17.960;2023-02-19T00:54:12;7.67;;;3.67;;
17725;SDS011;8983;53.156;17.960;2023-02-19T00:56:40;4.93;;;3.23;;
17725;SDS011;8983;53.156;17.960;2023-02-19T00:59:08;8.23;;;3.87;;
17725;SDS011;8983;53.156;17.960;2023-02-19T01:01:37;9.07;;;3.33;;
17725;SDS011;8983;53.156;17.960;2023-02-19T01:04:06;5.17;;;3.20;;
17725;SDS011;8983;53.156;17.960;2023-02-19T01:06:34;6.33;;;3.60;;
17725;SDS011;8983;53.156;17.960;2023-02-19T01:09:02;7.37;;;3.20;;
17725;SDS011;8983;53.156;17.960;2023-02-19T01:11:31;6.57;;;3.40;;
17725;SDS011;8983;53.156;17.960;2023-02-19T01:13:59;6.80;;;3.20;;
17725;SDS011;8983;53.156;17.960;2023-02-19T01:16:28;6.97;;;3.80;;
17725;SDS011;8983;53.156;17.960;2023-02-19T01:18:58;7.73;;;3.33;;
17725;SDS011;8983;53.156;17.960;2023-02-19T01:21:27;5.93;;;3.03;;
17725;SDS011;8983;53.156;17.960;2023-02-19T01:23:55;8.33;;;3.73;;
17725;SDS011;8983;53.156;17.960;2023-02-19T01:26:25;6.67;;;3.20;;
17725;SDS011;8983;53.156;17.960;2023-02-19T01:28:55;6.33;;;3.60;;
17725;SDS011;8983;53.156;17.960;2023-02-19T01:31:23;7.13;;;3.37;;
17725;SDS011;8983;53.156;17.960;2023-02-19T01:33:52;10.30;;;3.67;;
17725;SDS011;8983;53.156;17.960;2023-02-19T01:36:22;5.67;;;3.27;;
17725;SDS011;8983;53.156;17.960;2023-02-19T01:38:51;4.60;;;3.23;;
17725;SDS011;8983;53.156;17.960;2023-02-19T01:41:20;8.43;;;3.40;;
17725;SDS011;8983;53.156;17.960;2023-02-19T01:43:54;7.83;;;3.60;;
17725;SDS011;8983;53.156;17.960;2023-02-19T01:46:25;7.77;;;3.40;;
17725;SDS011;8983;53.156;17.960;2023-02-19T01:48:53;7.77;;;3.97;;
17725;SDS011;8983;53.156;17.960;2023-02-19T01:51:26;5.70;;;3.77;;
17725;SDS011;8983;53.156;17.960;2023-02-19T01:53:55;6.70;;;3.20;;
17725;SDS011;8983;53.156;17.960;2023-02-19T01:56:26;8.07;;;4.10;;
17725;SDS011;8983;53.156;17.960;2023-02-19T01:58:56;6.97;;;3.43;;
17725;SDS011;8983;53.156;17.960;2023-02-19T02:01:27;8.57;;;3.73;;
17725;SDS011;8983;53.156;17.960;2023-02-19T02:03:54;9.37;;;4.30;;
17725;SDS011;8983;53.156;17.960;2023-02-19T02:06:23;8.97;;;3.77;;
17725;SDS011;8983;53.156;17.960;2023-02-19T02:08:55;6.73;;;4.33;;
17725;SDS011;8983;53.156;17.960;2023-02-19T02:11:43;10.47;;;3.73;;
17725;SDS011;8983;53.156;17.960;2023-02-19T02:14:14;8.73;;;3.50;;
17725;SDS011;8983;53.156;17.960;2023-02-19T02:16:46;10.10;;;3.87;;
17725;SDS011;8983;53.156;17.960;2023-02-19T02:19:30;4.13;;;3.27;;
17725;SDS011;8983;53.156;17.960;2023-02-19T02:22:19;4.93;;;3.27;;
17725;SDS011;8983;53.156;17.960;2023-02-19T02:27:55;5.13;;;3.17;;
17725;SDS011;8983;53.156;17.960;2023-02-19T02:30:37;11.23;;;3.40;;
17725;SDS011;8983;53.156;17.960;2023-02-19T02:33:11;10.87;;;3.60;;
17725;SDS011;8983;53.156;17.960;2023-02-19T02:35:46;14.23;;;7.83;;
17725;SDS011;8983;53.156;17.960;2023-02-19T02:38:17;7.33;;;4.03;;
17725;SDS011;8983;53.156;17.960;2023-02-19T02:40:48;7.87;;;3.60;;
17725;SDS011;8983;53.156;17.960;2023-02-19T02:43:16;8.47;;;3.30;;
17725;SDS011;8983;53.156;17.960;2023-02-19T02:45:45;16.87;;;6.07;;
17725;SDS011;8983;53.156;17.960;2023-02-19T02:48:16;5.93;;;3.10;;
17725;SDS011;8983;53.156;17.960;2023-02-19T02:51:01;13.40;;;5.77;;
17725;SDS011;8983;53.156;17.960;2023-02-19T02:53:34;20.70;;;8.63;;
17725;SDS011;8983;53.156;17.960;2023-02-19T02:56:24;11.70;;;5.20;;
17725;SDS011;8983;53.156;17.960;2023-02-19T02:58:53;10.33;;;4.50;;
17725;SDS011;8983;53.156;17.960;2023-02-19T03:01:24;13.57;;;3.70;;
17725;SDS011;8983;53.156;17.960;2023-02-19T03:04:14;11.60;;;3.53;;
17725;SDS011;8983;53.156;17.960;2023-02-19T03:06:47;13.77;;;4.17;;
17725;SDS011;8983;53.156;17.960;2023-02-19T03:09:17;10.00;;;4.17;;
17725;SDS011;8983;53.156;17.960;2023-02-19T03:11:55;9.80;;;4.10;;
17725;SDS011;8983;53.156;17.960;2023-02-19T03:14:44;6.07;;;3.50;;
17725;SDS011;8983;53.156;17.960;2023-02-19T03:17:35;10.90;;;4.40;;
17725;SDS011;8983;53.156;17.960;2023-02-19T03:20:23;9.27;;;4.73;;
17725;SDS011;8983;53.156;17.960;2023-02-19T03:22:53;6.30;;;3.90;;
17725;SDS011;8983;53.156;17.960;2023-02-19T03:25:24;10.13;;;4.30;;
17725;SDS011;8983;53.156;17.960;2023-02-19T03:28:12;10.20;;;4.27;;
17725;SDS011;8983;53.156;17.960;2023-02-19T03:30:43;7.30;;;3.43;;
17725;SDS011;8983;53.156;17.960;2023-02-19T03:33:16;5.80;;;3.63;;
17725;SDS011;8983;53.156;17.960;2023-02-19T03:35:48;6.17;;;3.40;;
17725;SDS011;8983;53.156;17.960;2023-02-19T03:38:22;7.37;;;3.70;;
17725;SDS011;8983;53.156;17.960;2023-02-19T03:40:55;10.40;;;4.40;;
17725;SDS011;8983;53.156;17.960;2023-02-19T03:43:31;10.20;;;4.37;;
17725;SDS011;8983;53.156;17.960;2023-02-19T03:46:05;8.07;;;4.13;;
17725;SDS011;8983;53.156;17.960;2023-02-19T03:48:39;10.37;;;3.37;;
17725;SDS011;8983;53.156;17.960;2023-02-19T03:51:19;7.97;;;3.77;;
17725;SDS011;8983;53.156;17.960;2023-02-19T03:53:57;10.33;;;3.97;;
17725;SDS011;8983;53.156;17.960;2023-02-19T03:56:37;16.47;;;4.63;;
17725;SDS011;8983;53.156;17.960;2023-02-19T03:59:10;11.87;;;5.53;;
17725;SDS011;8983;53.156;17.960;2023-02-19T04:01:41;10.77;;;3.67;;
17725;SDS011;8983;53.156;17.960;2023-02-19T04:04:16;11.10;;;3.73;;
17725;SDS011;8983;53.156;17.960;2023-02-19T04:06:48;7.70;;;3.70;;
17725;SDS011;8983;53.156;17.960;2023-02-19T04:09:20;6.07;;;4.00;;
17725;SDS011;8983;53.156;17.960;2023-02-19T04:11:49;11.30;;;4.30;;
17725;SDS011;8983;53.156;17.960;2023-02-19T04:14:20;4.90;;;3.37;;
17725;SDS011;8983;53.156;17.960;2023-02-19T04:16:53;10.43;;;3.17;;
17725;SDS011;8983;53.156;17.960;2023-02-19T04:19:26;12.80;;;3.57;;
17725;SDS011;8983;53.156;17.960;2023-02-19T04:21:56;5.27;;;3.00;;
17725;SDS011;8983;53.156;17.960;2023-02-19T04:24:27;6.10;;;4.20;;
17725;SDS011;8983;53.156;17.960;2023-02-19T04:26:58;12.47;;;4.07;;
17725;SDS011;8983;53.156;17.960;2023-02-19T04:29:26;17.90;;;5.10;;
17725;SDS011;8983;53.156;17.960;2023-02-19T04:31:54;11.47;;;4.70;;
17725;SDS011;8983;53.156;17.960;2023-02-19T04:34:22;8.80;;;3.50;;
17725;SDS011;8983;53.156;17.960;2023-02-19T04:36:51;6.37;;;3.90;;
17725;SDS011;8983;53.156;17.960;2023-02-19T04:39:19;17.73;;;5.53;;
17725;SDS011;8983;53.156;17.960;2023-02-19T04:41:47;13.50;;;5.30;;
17725;SDS011;8983;53.156;17.960;2023-02-19T04:44:15;7.13;;;3.60;;
17725;SDS011;8983;53.156;17.960;2023-02-19T04:46:43;11.17;;;3.60;;
17725;SDS011;8983;53.156;17.960;2023-02-19T04:49:11;7.40;;;3.30;;
17725;SDS011;8983;53.156;17.960;2023-02-19T04:51:39;3.30;;;3.00;;
17725;SDS011;8983;53.156;17.960;2023-02-19T04:54:09;9.33;;;3.67;;
17725;SDS011;8983;53.156;17.960;2023-02-19T04:56:37;9.10;;;3.53;;
17725;SDS011;8983;53.156;17.960;2023-02-19T04:59:06;9.27;;;3.43;;
17725;SDS011;8983;53.156;17.960;2023-02-19T05:01:34;5.63;;;3.23;;
17725;SDS011;8983;53.156;17.960;2023-02-19T05:04:02;11.67;;;4.43;;
17725;SDS011;8983;53.156;17.960;2023-02-19T05:06:30;7.53;;;3.43;;
17725;SDS011;8983;53.156;17.960;2023-02-19T05:08:58;11.70;;;4.37;;
17725;SDS011;8983;53.156;17.960;2023-02-19T05:11:27;12.30;;;4.07;;
17725;SDS011;8983;53.156;17.960;2023-02-19T05:13:55;10.13;;;3.63;;
17725;SDS011;8983;53.156;17.960;2023-02-19T05:16:23;8.87;;;3.20;;
17725;SDS011;8983;53.156;17.960;2023-02-19T05:18:51;5.27;;;3.43;;
17725;SDS011;8983;53.156;17.960;2023-02-19T05:21:19;6.50;;;3.83;;
17725;SDS011;8983;53.156;17.960;2023-02-19T05:23:47;4.40;;;3.00;;
17725;SDS011;8983;53.156;17.960;2023-02-19T05:26:16;8.00;;;4.87;;
17725;SDS011;8983;53.156;17.960;2023-02-19T05:28:51;5.63;;;3.37;;
17725;SDS011;8983;53.156;17.960;2023-02-19T05:31:19;7.73;;;3.57;;
17725;SDS011;8983;53.156;17.960;2023-02-19T05:33:48;6.37;;;3.33;;
17725;SDS011;8983;53.156;17.960;2023-02-19T05:36:18;6.67;;;3.60;;
17725;SDS011;8983;53.156;17.960;2023-02-19T05:38:50;9.17;;;3.97;;
17725;SDS011;8983;53.156;17.960;2023-02-19T05:41:20;9.00;;;3.67;;
17725;SDS011;8983;53.156;17.960;2023-02-19T05:43:51;8.10;;;3.70;;
17725;SDS011;8983;53.156;17.960;2023-02-19T05:46:20;7.53;;;3.67;;
17725;SDS011;8983;53.156;17.960;2023-02-19T05:48:49;4.90;;;3.40;;
17725;SDS011;8983;53.156;17.960;2023-02-19T05:51:19;8.03;;;3.67;;
17725;SDS011;8983;53.156;17.960;2023-02-19T05:53:49;6.13;;;3.80;;
17725;SDS011;8983;53.156;17.960;2023-02-19T05:56:23;10.40;;;4.37;;
17725;SDS011;8983;53.156;17.960;2023-02-19T05:58:59;10.97;;;3.17;;
17725;SDS011;8983;53.156;17.960;2023-02-19T06:01:29;5.20;;;3.50;;
17725;SDS011;8983;53.156;17.960;2023-02-19T06:03:57;6.93;;;3.50;;
17725;SDS011;8983;53.156;17.960;2023-02-19T06:06:25;8.87;;;3.83;;
17725;SDS011;8983;53.156;17.960;2023-02-19T06:08:54;7.47;;;3.60;;
17725;SDS011;8983;53.156;17.960;2023-02-19T06:11:22;10.13;;;4.70;;
17725;SDS011;8983;53.156;17.960;2023-02-19T06:13:50;9.30;;;4.80;;
17725;SDS011;8983;53.156;17.960;2023-02-19T06:16:20;7.47;;;4.00;;
17725;SDS011;8983;53.156;17.960;2023-02-19T06:18:48;6.70;;;4.57;;
17725;SDS011;8983;53.156;17.960;2023-02-19T06:21:16;6.60;;;4.23;;
17725;SDS011;8983;53.156;17.960;2023-02-19T06:23:45;12.07;;;4.97;;
17725;SDS011;8983;53.156;17.960;2023-02-19T06:26:13;7.67;;;3.60;;
17725;SDS011;8983;53.156;17.960;2023-02-19T06:28:44;9.10;;;4.23;;
17725;SDS011;8983;53.156;17.960;2023-02-19T06:31:12;6.83;;;3.57;;
17725;SDS011;8983;53.156;17.960;2023-02-19T06:33:42;9.77;;;3.97;;
17725;SDS011;8983;53.156;17.960;2023-02-19T06:36:11;6.97;;;4.10;;
17725;SDS011;8983;53.156;17.960;2023-02-19T06:38:40;8.73;;;3.93;;
17725;SDS011;8983;53.156;17.960;2023-02-19T06:41:09;10.30;;;3.93;;
17725;SDS011;8983;53.156;17.960;2023-02-19T06:43:37;13.07;;;4.73;;
17725;SDS011;8983;53.156;17.960;2023-02-19T06:46:06;10.17;;;5.77;;
17725;SDS011;8983;53.156;17.960;2023-02-19T06:48:34;9.97;;;5.67;;
17725;SDS011;8983;53.156;17.960;2023-02-19T06:51:06;12.83;;;4.93;;
17725;SDS011;8983;53.156;17.960;2023-02-19T06:53:35;7.43;;;5.03;;
17725;SDS011;8983;53.156;17.960;2023-02-19T06:56:03;7.23;;;4.10;;
17725;SDS011;8983;53.156;17.960;2023-02-19T06:58:32;9.13;;;4.50;;
17725;SDS011;8983;53.156;17.960;2023-02-19T07:01:00;9.70;;;4.53;;
17725;SDS011;8983;53.156;17.960;2023-02-19T07:03:28;9.53;;;4.87;;
17725;SDS011;8983;53.156;17.960;2023-02-19T07:05:58;12.40;;;4.60;;
17725;SDS011;8983;53.156;17.960;2023-02-19T07:08:27;10.70;;;4.67;;
17725;SDS011;8983;53.156;17.960;2023-02-19T07:10:56;8.30;;;5.10;;
17725;SDS011;8983;53.156;17.960;2023-02-19T07:13:25;11.10;;;5.27;;
17725;SDS011;8983;53.156;17.960;2023-02-19T07:15:57;11.73;;;5.43;;
17725;SDS011;8983;53.156;17.960;2023-02-19T07:18:25;10.80;;;5.30;;
17725;SDS011;8983;53.156;17.960;2023-02-19T07:20:53;11.20;;;5.63;;
17725;SDS011;8983;53.156;17.960;2023-02-19T07:23:22;11.70;;;6.23;;
17725;SDS011;8983;53.156;17.960;2023-02-19T07:25:51;12.80;;;5.30;;
17725;SDS011;8983;53.156;17.960;2023-02-19T07:28:19;15.97;;;5.43;;
17725;SDS011;8983;53.156;17.960;2023-02-19T07:30:47;13.37;;;5.70;;
17725;SDS011;8983;53.156;17.960;2023-02-19T07:33:15;13.40;;;5.37;;
17725;SDS011;8983;53.156;17.960;2023-02-19T07:35:44;17.17;;;6.53;;
17725;SDS011;8983;53.156;17.960;2023-02-19T07:38:14;12.17;;;5.63;;
17725;SDS011;8983;53.156;17.960;2023-02-19T07:40:50;18.77;;;6.00;;
17725;SDS011;8983;53.156;17.960;2023-02-19T07:43:18;12.73;;;5.33;;
17725;SDS011;8983;53.156;17.960;2023-02-19T07:45:46;14.17;;;4.40;;
17725;SDS011;8983;53.156;17.960;2023-02-19T07:48:14;10.77;;;4.60;;
17725;SDS011;8983;53.156;17.960;2023-02-19T07:50:49;13.33;;;5.27;;
17725;SDS011;8983;53.156;17.960;2023-02-19T07:53:17;10.23;;;4.93;;
17725;SDS011;8983;53.156;17.960;2023-02-19T07:55:45;11.87;;;4.53;;
17725;SDS011;8983;53.156;17.960;2023-02-19T07:58:15;9.67;;;4.63;;
17725;SDS011;8983;53.156;17.960;2023-02-19T08:00:43;10.93;;;3.97;;
17725;SDS011;8983;53.156;17.960;2023-02-19T08:03:11;8.67;;;3.93;;
17725;SDS011;8983;53.156;17.960;2023-02-19T08:05:39;12.43;;;3.93;;
17725;SDS011;8983;53.156;17.960;2023-02-19T08:08:08;6.90;;;3.90;;
17725;SDS011;8983;53.156;17.960;2023-02-19T08:10:37;13.63;;;4.63;;
17725;SDS011;8983;53.156;17.960;2023-02-19T08:13:25;10.53;;;4.00;;
17725;SDS011;8983;53.156;17.960;2023-02-19T08:15:56;10.20;;;3.90;;
17725;SDS011;8983;53.156;17.960;2023-02-19T08:18:45;10.33;;;3.93;;
17725;SDS011;8983;53.156;17.960;2023-02-19T08:21:14;6.23;;;3.57;;
17725;SDS011;8983;53.156;17.960;2023-02-19T08:23:44;11.40;;;4.10;;
17725;SDS011;8983;53.156;17.960;2023-02-19T08:26:16;10.13;;;3.90;;
17725;SDS011;8983;53.156;17.960;2023-02-19T08:28:45;9.37;;;3.27;;
17725;SDS011;8983;53.156;17.960;2023-02-19T08:31:15;8.70;;;3.50;;
17725;SDS011;8983;53.156;17.960;2023-02-19T08:33:43;5.57;;;3.33;;
17725;SDS011;8983;53.156;17.960;2023-02-19T08:36:11;7.67;;;3.17;;
17725;SDS011;8983;53.156;17.960;2023-02-19T08:38:39;4.07;;;2.70;;
17725;SDS011;8983;53.156;17.960;2023-02-19T08:41:08;6.80;;;3.60;;
17725;SDS011;8983;53.156;17.960;2023-02-19T08:43:37;6.03;;;3.20;;
17725;SDS011;8983;53.156;17.960;2023-02-19T08:46:07;8.67;;;3.30;;
17725;SDS011;8983;53.156;17.960;2023-02-19T08:48:36;5.87;;;2.43;;
17725;SDS011;8983;53.156;17.960;2023-02-19T08:51:06;5.53;;;2.87;;
17725;SDS011;8983;53.156;17.960;2023-02-19T08:53:36;6.83;;;2.87;;
17725;SDS011;8983;53.156;17.960;2023-02-19T08:56:06;6.43;;;2.80;;
17725;SDS011;8983;53.156;17.960;2023-02-19T08:58:35;6.70;;;3.10;;
17725;SDS011;8983;53.156;17.960;2023-02-19T09:01:07;4.37;;;2.53;;
17725;SDS011;8983;53.156;17.960;2023-02-19T09:03:37;6.73;;;2.80;;
17725;SDS011;8983;53.156;17.960;2023-02-19T09:06:05;4.10;;;2.67;;
17725;SDS011;8983;53.156;17.960;2023-02-19T09:08:33;8.03;;;2.80;;
17725;SDS011;8983;53.156;17.960;2023-02-19T09:11:02;6.37;;;2.50;;
17725;SDS011;8983;53.156;17.960;2023-02-19T09:13:32;5.83;;;2.70;;
17725;SDS011;8983;53.156;17.960;2023-02-19T09:16:01;5.33;;;2.37;;
17725;SDS011;8983;53.156;17.960;2023-02-19T09:18:31;5.57;;;2.20;;
17725;SDS011;8983;53.156;17.960;2023-02-19T09:20:59;4.00;;;2.20;;
17725;SDS011;8983;53.156;17.960;2023-02-19T09:23:27;8.13;;;2.23;;
17725;SDS011;8983;53.156;17.960;2023-02-19T09:25:56;3.30;;;1.90;;
17725;SDS011;8983;53.156;17.960;2023-02-19T09:28:25;4.00;;;2.10;;
17725;SDS011;8983;53.156;17.960;2023-02-19T09:30:53;4.17;;;2.00;;
17725;SDS011;8983;53.156;17.960;2023-02-19T09:33:21;3.00;;;1.97;;
17725;SDS011;8983;53.156;17.960;2023-02-19T09:35:50;4.73;;;2.00;;
17725;SDS011;8983;53.156;17.960;2023-02-19T09:38:18;4.77;;;2.23;;
17725;SDS011;8983;53.156;17.960;2023-02-19T09:40:46;3.43;;;1.90;;
17725;SDS011;8983;53.156;17.960;2023-02-19T09:43:16;3.33;;;2.20;;
17725;SDS011;8983;53.156;17.960;2023-02-19T09:45:46;4.40;;;2.60;;
17725;SDS011;8983;53.156;17.960;2023-02-19T09:48:16;3.07;;;2.27;;
17725;SDS011;8983;53.156;17.960;2023-02-19T09:50:44;4.63;;;2.27;;
17725;SDS011;8983;53.156;17.960;2023-02-19T09:53:16;5.13;;;2.10;;
17725;SDS011;8983;53.156;17.960;2023-02-19T09:55:47;3.60;;;2.00;;
17725;SDS011;8983;53.156;17.960;2023-02-19T09:58:19;7.20;;;2.73;;
17725;SDS011;8983;53.156;17.960;2023-02-19T10:00:53;4.70;;;1.87;;
17725;SDS011;8983;53.156;17.960;2023-02-19T10:03:23;3.50;;;2.00;;
17725;SDS011;8983;53.156;17.960;2023-02-19T10:05:57;4.03;;;2.03;;
17725;SDS011;8983;53.156;17.960;2023-02-19T10:08:30;5.73;;;1.93;;
17725;SDS011;8983;53.156;17.960;2023-02-19T10:11:00;3.17;;;1.97;;
17725;SDS011;8983;53.156;17.960;2023-02-19T10:13:30;4.47;;;1.90;;
17725;SDS011;8983;53.156;17.960;2023-02-19T10:16:03;3.93;;;1.77;;
17725;SDS011;8983;53.156;17.960;2023-02-19T10:18:36;3.97;;;1.80;;
17725;SDS011;8983;53.156;17.960;2023-02-19T10:21:06;4.07;;;1.53;;
17725;SDS011;8983;53.156;17.960;2023-02-19T10:23:43;3.70;;;1.70;;
17725;SDS011;8983;53.156;17.960;2023-02-19T10:26:13;4.10;;;1.83;;
17725;SDS011;8983;53.156;17.960;2023-02-19T10:28:41;5.93;;;1.57;;
17725;SDS011;8983;53.156;17.960;2023-02-19T10:31:17;5.53;;;1.97;;
17725;SDS011;8983;53.156;17.960;2023-02-19T10:33:48;6.20;;;1.90;;
17725;SDS011;8983;53.156;17.960;2023-02-19T10:36:21;2.43;;;1.67;;
17725;SDS011;8983;53.156;17.960;2023-02-19T10:38:58;4.80;;;1.40;;
17725;SDS011;8983;53.156;17.960;2023-02-19T10:41:28;1.93;;;1.60;;
17725;SDS011;8983;53.156;17.960;2023-02-19T10:44:04;2.77;;;1.53;;
17725;SDS011;8983;53.156;17.960;2023-02-19T10:46:36;3.93;;;2.00;;
17725;SDS011;8983;53.156;17.960;2023-02-19T10:49:16;5.80;;;1.80;;
17725;SDS011;8983;53.156;17.960;2023-02-19T10:51:49;6.07;;;1.83;;
17725;SDS011;8983;53.156;17.960;2023-02-19T10:54:23;3.70;;;2.10;;
17725;SDS011;8983;53.156;17.960;2023-02-19T10:56:53;4.60;;;1.87;;
17725;SDS011;8983;53.156;17.960;2023-02-19T10:59:43;2.90;;;1.43;;
17725;SDS011;8983;53.156;17.960;2023-02-19T11:02:16;4.37;;;1.30;;
17725;SDS011;8983;53.156;17.960;2023-02-19T11:05:00;6.30;;;1.83;;
17725;SDS011;8983;53.156;17.960;2023-02-19T11:07:31;2.10;;;1.53;;
17725;SDS011;8983;53.156;17.960;2023-02-19T11:10:00;2.27;;;1.53;;
17725;SDS011;8983;53.156;17.960;2023-02-19T11:12:29;1.70;;;1.50;;
17725;SDS011;8983;53.156;17.960;2023-02-19T11:15:12;5.00;;;1.50;;
17725;SDS011;8983;53.156;17.960;2023-02-19T11:17:55;3.77;;;1.60;;
17725;SDS011;8983;53.156;17.960;2023-02-19T11:20:25;3.10;;;1.47;;
17725;SDS011;8983;53.156;17.960;2023-02-19T11:22:56;3.63;;;1.63;;
17725;SDS011;8983;53.156;17.960;2023-02-19T11:25:29;2.67;;;1.70;;
17725;SDS011;8983;53.156;17.960;2023-02-19T11:27:59;2.07;;;1.60;;
17725;SDS011;8983;53.156;17.960;2023-02-19T11:30:33;2.83;;;1.43;;
17725;SDS011;8983;53.156;17.960;2023-02-19T11:33:21;1.50;;;1.40;;
17725;SDS011;8983;53.156;17.960;2023-02-19T11:35:56;1.60;;;1.20;;
17725;SDS011;8983;53.156;17.960;2023-02-19T11:38:43;4.50;;;1.33;;
17725;SDS011;8983;53.156;17.960;2023-02-19T11:41:14;6.70;;;1.60;;
17725;SDS011;8983;53.156;17.960;2023-02-19T11:43:53;4.47;;;1.70;;
17725;SDS011;8983;53.156;17.960;2023-02-19T11:46:32;3.97;;;1.50;;
17725;SDS011;8983;53.156;17.960;2023-02-19T11:49:10;1.93;;;1.30;;
17725;SDS011;8983;53.156;17.960;2023-02-19T11:52:00;4.97;;;1.60;;
17725;SDS011;8983;53.156;17.960;2023-02-19T11:57:37;1.90;;;1.30;;
17725;SDS011;8983;53.156;17.960;2023-02-19T12:00:21;2.87;;;1.47;;
17725;SDS011;8983;53.156;17.960;2023-02-19T12:02:58;2.43;;;1.80;;
17725;SDS011;8983;53.156;17.960;2023-02-19T12:05:52;4.83;;;2.10;;
17725;SDS011;8983;53.156;17.960;2023-02-19T12:08:40;2.23;;;1.60;;
17725;SDS011;8983;53.156;17.960;2023-02-19T12:14:50;1.23;;;1.07;;
17725;SDS011;8983;53.156;17.960;2023-02-19T12:17:39;1.40;;;1.30;;
17725;SDS011;8983;53.156;17.960;2023-02-19T12:20:25;3.87;;;1.60;;
17725;SDS011;8983;53.156;17.960;2023-02-19T12:23:05;5.27;;;1.57;;
17725;SDS011;8983;53.156;17.960;2023-02-19T12:25:51;5.03;;;1.60;;
17725;SDS011;8983;53.156;17.960;2023-02-19T12:28:32;3.37;;;1.57;;
17725;SDS011;8983;53.156;17.960;2023-02-19T12:31:36;1.00;;;1.00;;
17725;SDS011;8983;53.156;17.960;2023-02-19T12:34:26;1.07;;;1.00;;
17725;SDS011;8983;53.156;17.960;2023-02-19T12:37:08;2.67;;;1.30;;
17725;SDS011;8983;53.156;17.960;2023-02-19T12:39:44;1.33;;;1.23;;
17725;SDS011;8983;53.156;17.960;2023-02-19T12:42:25;1.20;;;1.10;;
17725;SDS011;8983;53.156;17.960;2023-02-19T12:45:05;3.77;;;1.50;;
17725;SDS011;8983;53.156;17.960;2023-02-19T12:47:44;1.20;;;1.10;;
17725;SDS011;8983;53.156;17.960;2023-02-19T12:50:20;1.13;;;1.00;;
17725;SDS011;8983;53.156;17.960;2023-02-19T12:52:52;1.67;;;1.03;;
17725;SDS011;8983;53.156;17.960;2023-02-19T12:55:25;3.60;;;1.27;;
17725;SDS011;8983;53.156;17.960;2023-02-19T12:57:56;1.53;;;1.33;;
17725;SDS011;8983;53.156;17.960;2023-02-19T13:00:32;1.37;;;1.03;;
17725;SDS011;8983;53.156;17.960;2023-02-19T13:03:08;1.17;;;0.90;;
17725;SDS011;8983;53.156;17.960;2023-02-19T13:05:41;1.57;;;1.13;;
17725;SDS011;8983;53.156;17.960;2023-02-19T13:08:14;1.00;;;1.00;;
17725;SDS011;8983;53.156;17.960;2023-02-19T13:10:48;1.20;;;1.10;;
17725;SDS011;8983;53.156;17.960;2023-02-19T13:13:22;1.30;;;1.20;;
17725;SDS011;8983;53.156;17.960;2023-02-19T13:15:55;1.10;;;1.10;;
17725;SDS011;8983;53.156;17.960;2023-02-19T13:18:29;1.63;;;1.37;;
17725;SDS011;8983;53.156;17.960;2023-02-19T13:21:05;1.73;;;1.20;;
17725;SDS011;8983;53.156;17.960;2023-02-19T13:23:35;2.80;;;1.10;;
17725;SDS011;8983;53.156;17.960;2023-02-19T13:26:30;0.97;;;0.97;;
17725;SDS011;8983;53.156;17.960;2023-02-19T13:29:14;1.43;;;1.20;;
17725;SDS011;8983;53.156;17.960;2023-02-19T13:32:02;1.33;;;1.03;;
17725;SDS011;8983;53.156;17.960;2023-02-19T13:34:57;2.07;;;0.83;;
17725;SDS011;8983;53.156;17.960;2023-02-19T13:37:38;3.00;;;1.03;;
17725;SDS011;8983;53.156;17.960;2023-02-19T13:40:16;1.73;;;1.20;;
17725;SDS011;8983;53.156;17.960;2023-02-19T13:42:50;2.30;;;0.90;;
17725;SDS011;8983;53.156;17.960;2023-02-19T13:45:20;0.90;;;0.90;;
17725;SDS011;8983;53.156;17.960;2023-02-19T13:48:00;1.97;;;1.20;;
17725;SDS011;8983;53.156;17.960;2023-02-19T13:50:42;0.90;;;0.90;;
17725;SDS011;8983;53.156;17.960;2023-02-19T13:56:34;0.70;;;0.70;;
17725;SDS011;8983;53.156;17.960;2023-02-19T13:59:23;0.90;;;0.90;;
17725;SDS011;8983;53.156;17.960;2023-02-19T14:02:08;2.13;;;1.60;;
17725;SDS011;8983;53.156;17.960;2023-02-19T14:04:52;0.80;;;0.80;;
17725;SDS011;8983;53.156;17.960;2023-02-19T14:25:21;1.77;;;1.50;;
17725;SDS011;8983;53.156;17.960;2023-02-19T14:27:56;1.10;;;1.00;;
17725;SDS011;8983;53.156;17.960;2023-02-19T14:30:28;2.57;;;1.03;;
17725;SDS011;8983;53.156;17.960;2023-02-19T14:33:00;1.30;;;0.90;;
17725;SDS011;8983;53.156;17.960;2023-02-19T14:35:37;1.83;;;1.40;;
17725;SDS011;8983;53.156;17.960;2023-02-19T14:38:09;1.90;;;1.07;;
17725;SDS011;8983;53.156;17.960;2023-02-19T14:40:42;2.67;;;0.80;;
17725;SDS011;8983;53.156;17.960;2023-02-19T14:43:14;1.30;;;1.20;;
17725;SDS011;8983;53.156;17.960;2023-02-19T14:45:45;2.37;;;1.30;;
17725;SDS011;8983;53.156;17.960;2023-02-19T14:48:18;0.90;;;0.90;;
17725;SDS011;8983;53.156;17.960;2023-02-19T14:50:50;1.17;;;1.07;;
17725;SDS011;8983;53.156;17.960;2023-02-19T14:53:22;1.07;;;1.07;;
17725;SDS011;8983;53.156;17.960;2023-02-19T14:55:52;1.23;;;1.07;;
17725;SDS011;8983;53.156;17.960;2023-02-19T14:58:23;1.70;;;1.60;;
17725;SDS011;8983;53.156;17.960;2023-02-19T15:00:54;3.90;;;1.40;;
17725;SDS011;8983;53.156;17.960;2023-02-19T15:03:25;1.90;;;1.63;;
17725;SDS011;8983;53.156;17.960;2023-02-19T15:05:57;3.10;;;2.10;;
17725;SDS011;8983;53.156;17.960;2023-02-19T15:08:29;3.53;;;2.50;;
17725;SDS011;8983;53.156;17.960;2023-02-19T15:11:00;2.07;;;1.80;;
17725;SDS011;8983;53.156;17.960;2023-02-19T15:13:30;2.13;;;1.40;;
17725;SDS011;8983;53.156;17.960;2023-02-19T15:15:58;3.00;;;1.43;;
17725;SDS011;8983;53.156;17.960;2023-02-19T15:18:27;3.00;;;1.30;;
17725;SDS011;8983;53.156;17.960;2023-02-19T15:21:01;1.60;;;1.50;;
17725;SDS011;8983;53.156;17.960;2023-02-19T15:23:31;1.97;;;1.40;;
17725;SDS011;8983;53.156;17.960;2023-02-19T15:26:01;2.90;;;2.63;;
17725;SDS011;8983;53.156;17.960;2023-02-19T15:28:30;2.97;;;2.23;;
17725;SDS011;8983;53.156;17.960;2023-02-19T15:31:10;3.53;;;1.80;;
17725;SDS011;8983;53.156;17.960;2023-02-19T15:33:49;1.33;;;1.20;;
17725;SDS011;8983;53.156;17.960;2023-02-19T15:36:21;2.60;;;1.63;;
17725;SDS011;8983;53.156;17.960;2023-02-19T15:38:52;1.57;;;1.30;;
17725;SDS011;8983;53.156;17.960;2023-02-19T15:41:23;4.27;;;2.00;;
17725;SDS011;8983;53.156;17.960;2023-02-19T15:43:56;7.20;;;3.83;;
17725;SDS011;8983;53.156;17.960;2023-02-19T15:46:29;2.00;;;1.90;;
17725;SDS011;8983;53.156;17.960;2023-02-19T15:49:00;1.87;;;1.77;;